»·PEaware :: N5002T KSMX-KSBA

N5002T :: KSMX-KSBA

FLIGHT INFORMATION

Flight Status: Arrived
Operator: Privately registered:
United States
More flights under this callsign
Pilot: Hunter M. (19355)
Aircraft: CESSNA 172 SKYHAWK
(C172)
More flights by this aircraft type
Origin: KSMX Santa Maria Pub/Capt Hancock
United States
Destination: KSBA Santa Barbara Mun
United States
More flights between these airports :: More routes between these airports
Route: +BUELT4 GVO HABUT / AFOXY
File this flight plan on PilotEdge
Remarks:
Altitude:
(Current/Filed)
5,000ft
Speed:
(Current/Filed)
118kts
Departed: 23-Nov-18 12:52 PM
Arrived: 23-Nov-18 01:25 PM
Distance/Time
Traveled:
41nm/0:32
Distance/Time
To Go:
Arrived

Flight Plot

Page will automatically refresh every two minutes.

Flight plan parsing failed; only flown route is shown


Map Options




Map Legend


Flown Route
Filed Route
Departure Airport
Arrival Airport
Navaid (VOR, NDB)
Fix

Horizontal Profiles

Position Reports

Time Latitude Longitude Heading Altitude Ground
Speed
23-Nov-18 12:33 34.903692 -120.455461 315 264ft 0kts
23-Nov-18 12:34 34.903693 -120.455462 316 264ft 0kts
23-Nov-18 12:35 34.903694 -120.455463 316 264ft 0kts
23-Nov-18 12:36 34.903695 -120.455464 316 264ft 0kts
23-Nov-18 12:37 34.903695 -120.455465 316 264ft 0kts
23-Nov-18 12:38 34.903696 -120.455467 316 264ft 0kts
23-Nov-18 12:39 34.903697 -120.455468 316 264ft 0kts
23-Nov-18 12:40 34.903698 -120.455469 316 264ft 0kts
23-Nov-18 12:41 34.903699 -120.455470 316 264ft 0kts
23-Nov-18 12:42 34.903700 -120.455471 316 264ft 0kts
23-Nov-18 12:43 34.903701 -120.455472 316 264ft 0kts
23-Nov-18 12:44 34.903702 -120.455473 316 264ft 0kts
23-Nov-18 12:45 34.903703 -120.455474 316 264ft 0kts
23-Nov-18 12:46 34.903703 -120.455475 316 264ft 0kts
23-Nov-18 12:47 34.902167 -120.453661 151 264ft 14kts
23-Nov-18 12:48 34.900451 -120.452964 131 264ft 10kts
23-Nov-18 12:49 34.899343 -120.451563 136 264ft 18kts
23-Nov-18 12:50 34.895067 -120.446545 131 264ft 20kts
23-Nov-18 12:51 34.893583 -120.445287 256 264ft 2kts
23-Nov-18 12:52 34.893425 -120.445406 196 264ft 0kts
23-Nov-18 12:53 34.893306 -120.445450 197 264ft 6kts
23-Nov-18 12:54 34.893093 -120.446194 306 264ft 0kts
23-Nov-18 12:55 34.905249 -120.460453 315 666ft 85kts
23-Nov-18 12:56 34.925083 -120.457715 80 1328ft 103kts
23-Nov-18 12:57 34.905036 -120.452311 203 2039ft 94kts
23-Nov-18 12:58 34.879960 -120.463226 203 2731ft 96kts
23-Nov-18 12:59 34.859473 -120.452053 119 3440ft 96kts
23-Nov-18 13:00 34.839852 -120.430104 145 4130ft 95kts
23-Nov-18 13:01 34.817671 -120.412095 144 4815ft 95kts
23-Nov-18 13:02 34.792793 -120.391804 145 5009ft 123kts
23-Nov-18 13:03 34.766346 -120.370186 145 4972ft 105kts
23-Nov-18 13:04 34.741960 -120.350202 145 4987ft 106kts
23-Nov-18 13:05 34.717952 -120.329108 123 4986ft 105kts
23-Nov-18 13:06 34.699606 -120.300997 126 4986ft 106kts
23-Nov-18 13:07 34.681159 -120.272759 127 4987ft 106kts
23-Nov-18 13:08 34.662682 -120.244466 129 4987ft 106kts
23-Nov-18 13:09 34.643818 -120.215655 127 4754ft 120kts
23-Nov-18 13:10 34.623492 -120.184643 125 4334ft 102kts
23-Nov-18 13:11 34.607754 -120.157752 145 4483ft 101kts
23-Nov-18 13:12 34.579235 -120.149687 166 4374ft 107kts
23-Nov-18 13:13 34.551284 -120.139388 163 4379ft 104kts
23-Nov-18 13:14 34.523708 -120.128595 163 4380ft 104kts
23-Nov-18 13:15 34.496734 -120.116404 149 4424ft 101kts
23-Nov-18 13:16 34.468890 -120.106350 166 4216ft 107kts
23-Nov-18 13:17 34.440771 -120.096001 163 3595ft 105kts
23-Nov-18 13:18 34.422643 -120.075052 80 2987ft 99kts
23-Nov-18 13:19 34.423412 -120.042553 88 2434ft 90kts
23-Nov-18 13:20 34.424099 -120.012519 86 1915ft 88kts
23-Nov-18 13:21 34.424692 -119.985009 89 1766ft 76kts
23-Nov-18 13:22 34.425233 -119.959742 88 1775ft 83kts
23-Nov-18 13:23 34.426427 -119.934150 91 1300ft 71kts
23-Nov-18 13:24 34.426543 -119.911168 91 956ft 65kts
23-Nov-18 13:25 34.426943 -119.889466 97 631ft 62kts
23-Nov-18 13:26 34.427396 -119.868556 96 278ft 56kts
23-Nov-18 13:27 34.427594 -119.850265 86 14ft 44kts
23-Nov-18 13:28 34.428240 -119.845928 20 13ft 0kts
23-Nov-18 13:29 34.428785 -119.846216 325 13ft 0kts

Navigation Log

Ident Type
Flight plan parsing failed, navigation log unavailable